Pierson, Florida
Current Conditions -  °F | °C
As of 6:50 AM on Wednesday 28 Jan 2015 (Local Time) from KOMN Reporting Station
Clear Clear  
Wind Chill: 37°   Ceiling: Unl
Heat Index: 37°   Visibility: 10mi
Dew Point: 32°   Wind: 0mph
Humidity: 81%   Direction: NA
Pressure: 30.15"   Gusts: NA
Location:  29.24°N, 81.47°W
Report Text: KOMN 281150Z 00000KT 10SM SKC 03/00 A3015 RMK FIRST
Loading
Personal Weather Stations






























Interactive Weather Map New forecast layout! Learn more

10-Day Weather Forecast

Advertisements
Track Severe Weather on mobile